Time;durP1;ratioP1;P1;durP2;ratioP2;P2;SDS_P1;SDS_P2;PMS_P1;PMS_P2;Temp;Humidity;BMP_temperature;BMP_pressure;BME280_temperature;BME280_humidity;BME280_pressure;Samples;Min_cycle;Max_cycle;Signal;HPM_P1;HPM_P2
2023/01/18 00:00:04;;;;;;;14.70;6.30;;;4.00;99.90;;;;;;5057107;28;20346;-74
2023/01/18 00:02:49;;;;;;;5.95;3.70;;;3.90;99.90;;;;;;5066716;28;20200;-73
2023/01/18 00:05:39;;;;;;;7.95;4.18;;;4.00;99.90;;;;;;5068079;28;20783;-73
2023/01/18 00:08:25;;;;;;;7.40;4.00;;;4.00;99.90;;;;;;5064388;28;20208;-73
2023/01/18 00:11:14;;;;;;;9.35;3.78;;;4.10;99.90;;;;;;5068473;28;20677;-73
2023/01/18 00:14:01;;;;;;;7.30;4.40;;;4.10;99.90;;;;;;5066137;28;20682;-75
2023/01/18 00:16:46;;;;;;;6.53;3.90;;;4.10;99.90;;;;;;5063117;28;20207;-73
2023/01/18 00:19:33;;;;;;;7.75;4.30;;;4.10;99.90;;;;;;5064402;28;20204;-73
2023/01/18 00:22:20;;;;;;;9.30;5.13;;;4.00;99.90;;;;;;5068709;28;20726;-74
2023/01/18 00:25:06;;;;;;;8.00;5.07;;;4.10;99.90;;;;;;5067817;28;20619;-74
2023/01/18 00:27:53;;;;;;;8.70;4.50;;;4.10;99.90;;;;;;5065715;28;20475;-74
2023/01/18 00:30:40;;;;;;;9.15;5.30;;;4.10;99.90;;;;;;5063604;28;20552;-74
2023/01/18 00:33:25;;;;;;;8.35;5.07;;;4.10;99.90;;;;;;5072511;28;20258;-74
2023/01/18 00:36:12;;;;;;;13.00;5.82;;;4.00;99.90;;;;;;5071841;28;20212;-74
2023/01/18 00:38:59;;;;;;;11.95;6.40;;;3.90;99.90;;;;;;5070047;28;20203;-74
2023/01/18 00:44:44;;;;;;;10.30;6.35;;;3.90;99.90;;;;;;5068067;28;20271;-74
2023/01/18 00:47:30;;;;;;;12.07;6.72;;;3.90;99.90;;;;;;5069785;28;20203;-74
2023/01/18 00:50:18;;;;;;;10.00;6.13;;;4.00;99.90;;;;;;5068934;28;20204;-74
2023/01/18 00:53:04;;;;;;;18.35;8.07;;;4.00;99.90;;;;;;5068389;28;20208;-74
2023/01/18 00:55:51;;;;;;;13.27;8.15;;;4.00;99.90;;;;;;5066316;28;20339;-73
2023/01/18 00:58:37;;;;;;;12.13;7.57;;;3.90;99.90;;;;;;5069755;28;20266;-74
2023/01/18 01:01:22;;;;;;;12.25;7.85;;;3.80;99.90;;;;;;5070497;28;20366;-74
2023/01/18 01:07:11;;;;;;;9.95;5.97;;;3.80;99.90;;;;;;5074415;28;20242;-74
2023/01/18 01:09:57;;;;;;;10.52;6.18;;;3.80;99.90;;;;;;5071511;28;20571;-73
2023/01/18 01:28:02;;;;;;;8.82;5.80;;;3.70;99.90;;;;;;5068759;28;20195;-74
2023/01/18 01:30:47;;;;;;;7.55;4.88;;;3.70;99.90;;;;;;5070630;28;20255;-73
2023/01/18 01:33:34;;;;;;;11.18;6.20;;;3.70;99.90;;;;;;5065198;28;20205;-73
2023/01/18 01:36:24;;;;;;;10.18;6.88;;;3.70;99.90;;;;;;5065472;28;20200;-74
2023/01/18 01:39:10;;;;;;;12.05;6.30;;;3.70;99.90;;;;;;5061929;28;20988;-74
2023/01/18 01:41:56;;;;;;;10.77;7.18;;;3.70;99.90;;;;;;5065285;28;20337;-74
2023/01/18 01:44:51;;;;;;;10.38;6.80;;;3.80;99.90;;;;;;5065875;28;20306;-74
2023/01/18 01:47:41;;;;;;;13.05;8.07;;;3.80;99.90;;;;;;5069138;28;20692;-74
2023/01/18 01:50:31;;;;;;;11.15;6.85;;;3.80;99.90;;;;;;5065980;28;20330;-75
2023/01/18 01:53:16;;;;;;;10.68;6.28;;;3.80;99.90;;;;;;5072347;28;20208;-74
2023/01/18 01:56:03;;;;;;;11.35;6.53;;;3.80;99.90;;;;;;5071738;28;20263;-72
2023/01/18 01:58:51;;;;;;;8.90;7.03;;;3.80;99.90;;;;;;5063005;28;20608;-74
2023/01/18 02:01:42;;;;;;;10.93;6.80;;;3.70;99.90;;;;;;5064782;28;20688;-73
2023/01/18 02:04:27;;;;;;;13.25;7.82;;;3.70;99.90;;;;;;5069787;28;20223;-73
2023/01/18 02:07:13;;;;;;;7.95;6.15;;;3.70;99.90;;;;;;5058321;28;20420;-74
2023/01/18 02:10:00;;;;;;;9.82;6.05;;;3.70;99.90;;;;;;5067369;28;20715;-74
2023/01/18 02:12:49;;;;;;;9.23;6.75;;;3.70;99.90;;;;;;5070529;28;20205;-73
2023/01/18 02:15:40;;;;;;;9.82;6.60;;;3.70;99.90;;;;;;5071879;28;20232;-73
2023/01/18 02:18:31;;;;;;;11.32;6.82;;;3.60;99.90;;;;;;5068638;28;20209;-74
2023/01/18 02:21:18;;;;;;;13.90;6.82;;;3.70;99.90;;;;;;5068325;28;20204;-73
2023/01/18 02:24:55;;;;;;;10.00;7.25;;;3.70;99.90;;;;;;5072616;28;20212;-73
2023/01/18 02:27:45;;;;;;;11.45;7.07;;;3.70;99.90;;;;;;5065905;28;20262;-74
2023/01/18 02:30:37;;;;;;;8.18;5.88;;;3.80;99.90;;;;;;5064106;28;20208;-72
2023/01/18 02:33:29;;;;;;;9.27;6.80;;;3.80;99.90;;;;;;5071296;28;20259;-73
2023/01/18 02:36:23;;;;;;;10.90;6.05;;;3.80;99.90;;;;;;5068277;28;20294;-74
2023/01/18 02:39:22;;;;;;;8.77;6.40;;;3.80;99.90;;;;;;5067145;28;20195;-74
2023/01/18 02:48:35;;;;;;;8.38;5.88;;;3.90;99.90;;;;;;5064704;28;20255;-72
2023/01/18 02:51:21;;;;;;;10.50;6.35;;;3.80;99.90;;;;;;5066837;28;20330;-73
2023/01/18 02:54:09;;;;;;;7.57;5.38;;;3.70;99.90;;;;;;5063170;28;20743;-74
2023/01/18 02:56:58;;;;;;;10.23;6.25;;;3.70;99.90;;;;;;5064777;28;20196;-73
2023/01/18 02:59:49;;;;;;;10.55;6.13;;;3.60;99.90;;;;;;5069336;28;20224;-73
2023/01/18 03:02:37;;;;;;;6.95;4.93;;;3.60;99.90;;;;;;5063328;28;20581;-74
2023/01/18 03:05:26;;;;;;;9.10;5.80;;;3.70;99.90;;;;;;5060159;28;20704;-74
2023/01/18 03:08:18;;;;;;;11.50;5.68;;;3.70;99.90;;;;;;5059309;28;20216;-73
2023/01/18 03:11:12;;;;;;;9.73;5.78;;;3.70;99.90;;;;;;5071250;28;20286;-72
2023/01/18 03:14:12;;;;;;;13.13;5.40;;;3.70;99.90;;;;;;5066121;28;20209;-73
2023/01/18 03:17:06;;;;;;;9.57;6.15;;;3.70;99.90;;;;;;5058820;28;20195;-74
2023/01/18 03:20:06;;;;;;;8.90;6.00;;;3.60;99.90;;;;;;5061401;28;20209;-74
2023/01/18 03:26:04;;;;;;;12.50;6.28;;;3.50;99.90;;;;;;5064039;28;20259;-72
2023/01/18 03:35:10;;;;;;;7.78;5.43;;;3.40;99.90;;;;;;5065270;28;20259;-74
2023/01/18 03:37:59;;;;;;;8.25;5.35;;;3.50;99.90;;;;;;5063333;28;20199;-72
2023/01/18 03:40:44;;;;;;;7.65;5.00;;;3.40;99.90;;;;;;5061260;28;20208;-73
2023/01/18 03:43:36;;;;;;;12.13;6.22;;;3.40;99.90;;;;;;5065132;28;20222;-73
2023/01/18 03:46:26;;;;;;;8.05;5.07;;;3.50;99.90;;;;;;5064519;28;20298;-72
2023/01/18 03:49:12;;;;;;;6.82;5.28;;;3.50;99.90;;;;;;5066238;28;20655;-72
2023/01/18 03:52:14;;;;;;;7.90;5.65;;;3.40;99.90;;;;;;5062305;28;20199;-73
2023/01/18 03:55:05;;;;;;;8.23;5.45;;;3.30;99.90;;;;;;5063896;28;20273;-73
2023/01/18 03:57:55;;;;;;;10.65;6.40;;;3.30;99.90;;;;;;5060072;28;20216;-73
2023/01/18 04:00:41;;;;;;;18.42;7.45;;;3.30;99.90;;;;;;5064990;28;20200;-74
2023/01/18 04:03:26;;;;;;;12.27;7.00;;;3.20;99.90;;;;;;5065597;28;20677;-73
2023/01/18 04:06:12;;;;;;;10.73;6.20;;;3.10;99.90;;;;;;5068672;28;20453;-73
2023/01/18 04:08:58;;;;;;;9.30;6.45;;;3.10;99.90;;;;;;5064881;28;20275;-73
2023/01/18 04:11:45;;;;;;;12.75;6.55;;;3.20;99.90;;;;;;5065302;28;20200;-73
2023/01/18 04:14:31;;;;;;;7.10;5.93;;;3.10;99.90;;;;;;5066936;28;20262;-73
2023/01/18 04:17:17;;;;;;;7.72;5.68;;;3.20;99.90;;;;;;5065037;28;20204;-73
2023/01/18 04:20:03;;;;;;;9.57;6.05;;;3.10;99.90;;;;;;5063262;28;20208;-72
2023/01/18 04:22:52;;;;;;;9.07;6.70;;;3.10;99.90;;;;;;5066719;28;20564;-73
2023/01/18 04:25:39;;;;;;;9.30;7.00;;;3.20;99.90;;;;;;5069337;28;20232;-73
2023/01/18 04:28:26;;;;;;;9.88;7.43;;;3.20;99.90;;;;;;5060552;28;20270;-72
2023/01/18 04:31:12;;;;;;;9.48;5.32;;;3.10;99.90;;;;;;5066528;28;20200;-73
2023/01/18 04:33:58;;;;;;;9.73;6.55;;;3.10;99.90;;;;;;5062821;28;20201;-74
2023/01/18 04:36:43;;;;;;;11.20;6.50;;;3.10;99.90;;;;;;5056205;28;20568;-72
2023/01/18 04:39:29;;;;;;;8.88;6.55;;;3.00;99.90;;;;;;5059433;28;20196;-74
2023/01/18 04:42:14;;;;;;;10.82;6.70;;;3.10;99.90;;;;;;5067118;28;20212;-74
2023/01/18 04:45:01;;;;;;;7.97;6.55;;;3.10;99.90;;;;;;5062380;28;20310;-73
2023/01/18 04:47:47;;;;;;;9.75;7.35;;;3.20;99.90;;;;;;5065715;28;20696;-72
2023/01/18 04:50:32;;;;;;;13.45;7.32;;;3.20;99.90;;;;;;5061688;28;20311;-73
2023/01/18 04:53:19;;;;;;;7.22;6.28;;;3.20;99.90;;;;;;5063856;28;20204;-73
2023/01/18 04:56:05;;;;;;;9.75;6.82;;;3.20;99.90;;;;;;5060163;28;20223;-74
2023/01/18 04:58:53;;;;;;;9.32;7.30;;;3.20;99.90;;;;;;5063949;28;20593;-71
2023/01/18 05:01:40;;;;;;;13.00;7.07;;;3.20;99.90;;;;;;5064670;28;20259;-72
2023/01/18 05:04:25;;;;;;;10.75;8.23;;;3.10;99.90;;;;;;5064440;28;20729;-73
2023/01/18 05:07:11;;;;;;;17.08;9.38;;;3.20;99.90;;;;;;5060595;28;20258;-73
2023/01/18 05:09:56;;;;;;;16.13;10.38;;;3.10;99.90;;;;;;5064905;28;20689;-73
2023/01/18 05:12:42;;;;;;;14.02;10.48;;;3.10;99.90;;;;;;5066178;28;20327;-72
2023/01/18 05:15:28;;;;;;;14.63;10.07;;;3.00;99.90;;;;;;5060637;28;20725;-73
2023/01/18 05:18:15;;;;;;;15.48;11.15;;;2.90;99.90;;;;;;5063596;28;20192;-74
2023/01/18 05:21:00;;;;;;;14.43;9.75;;;3.00;99.90;;;;;;5064100;28;20282;-72
2023/01/18 05:23:46;;;;;;;15.02;10.48;;;3.00;99.90;;;;;;5068001;28;20212;-74
2023/01/18 05:26:32;;;;;;;15.77;11.25;;;3.10;99.90;;;;;;5068355;28;20786;-72
2023/01/18 05:29:18;;;;;;;24.42;12.80;;;3.10;99.90;;;;;;5069191;28;20207;-73
2023/01/18 05:32:05;;;;;;;35.53;13.77;;;3.10;99.90;;;;;;5066741;28;20232;-72
2023/01/18 05:34:52;;;;;;;60.35;19.60;;;3.10;99.90;;;;;;5060995;28;20224;-73
2023/01/18 05:37:37;;;;;;;36.70;14.70;;;3.10;99.90;;;;;;5068634;28;20255;-73
2023/01/18 05:40:23;;;;;;;46.40;14.50;;;3.10;99.90;;;;;;5065667;28;20196;-72
2023/01/18 05:43:08;;;;;;;23.75;11.30;;;3.00;99.90;;;;;;5068862;28;20346;-74
2023/01/18 05:45:54;;;;;;;18.95;9.40;;;3.10;99.90;;;;;;5066218;28;20223;-74
2023/01/18 05:48:40;;;;;;;18.40;10.20;;;3.10;99.90;;;;;;5071211;28;20208;-74
2023/01/18 05:51:27;;;;;;;20.83;10.10;;;3.20;99.90;;;;;;5069172;28;20254;-74
2023/01/18 05:54:13;;;;;;;16.90;10.20;;;3.20;99.90;;;;;;5060398;28;20254;-74
2023/01/18 05:56:59;;;;;;;20.55;10.68;;;3.10;99.90;;;;;;5064111;28;20230;-74
2023/01/18 05:59:44;;;;;;;16.08;8.52;;;3.20;99.90;;;;;;5063778;28;20208;-74
2023/01/18 06:02:29;;;;;;;9.38;8.00;;;3.20;99.90;;;;;;5070958;28;20204;-74
2023/01/18 06:05:15;;;;;;;12.35;9.35;;;3.20;99.90;;;;;;5065052;28;20720;-74
2023/01/18 06:08:02;;;;;;;11.15;8.98;;;3.20;99.90;;;;;;5069921;28;20228;-74
2023/01/18 06:10:53;;;;;;;14.63;10.10;;;3.30;99.90;;;;;;5074009;28;20346;-74
2023/01/18 06:13:39;;;;;;;13.45;10.73;;;3.30;99.90;;;;;;5063981;28;20923;-74
2023/01/18 06:16:24;;;;;;;13.57;10.10;;;3.30;99.90;;;;;;5064968;28;20208;-74
2023/01/18 06:19:10;;;;;;;11.45;9.20;;;3.30;99.90;;;;;;5066384;28;20203;-74
2023/01/18 06:21:56;;;;;;;11.20;8.63;;;3.20;99.90;;;;;;5065422;28;20204;-74
2023/01/18 06:24:43;;;;;;;14.07;9.07;;;3.30;99.90;;;;;;5057863;28;20232;-72
2023/01/18 06:27:28;;;;;;;14.88;8.80;;;3.20;99.90;;;;;;5066204;28;20224;-74
2023/01/18 06:30:15;;;;;;;13.13;10.57;;;3.20;99.90;;;;;;5065821;28;20765;-74
2023/01/18 06:33:05;;;;;;;10.43;9.10;;;3.20;99.90;;;;;;5066239;28;20200;-74
2023/01/18 06:35:51;;;;;;;12.68;10.00;;;3.20;99.90;;;;;;5063158;28;20220;-74
2023/01/18 06:38:37;;;;;;;12.80;9.73;;;3.20;99.90;;;;;;5070601;28;20723;-74
2023/01/18 06:41:24;;;;;;;11.93;9.40;;;3.20;99.90;;;;;;5072071;28;20349;-74
2023/01/18 06:44:09;;;;;;;12.38;9.38;;;3.20;99.90;;;;;;5071836;28;20207;-74
2023/01/18 06:46:55;;;;;;;13.25;9.40;;;3.20;99.90;;;;;;5067953;28;20231;-74
2023/01/18 06:49:41;;;;;;;12.18;9.20;;;3.20;99.90;;;;;;5070030;28;20250;-74
2023/01/18 06:52:27;;;;;;;16.23;10.93;;;3.10;99.90;;;;;;5060581;28;20208;-74
2023/01/18 06:55:14;;;;;;;12.70;9.38;;;3.10;99.90;;;;;;5063031;28;20247;-74
2023/01/18 06:58:01;;;;;;;10.32;8.75;;;3.10;99.90;;;;;;5065961;28;20200;-74
2023/01/18 07:00:46;;;;;;;8.93;7.85;;;3.10;99.90;;;;;;5062121;28;20704;-73
2023/01/18 07:03:33;;;;;;;12.68;7.88;;;3.10;99.90;;;;;;5070778;28;20223;-73
2023/01/18 07:06:19;;;;;;;16.08;8.77;;;3.20;99.90;;;;;;5068064;28;20587;-73
2023/01/18 07:09:06;;;;;;;14.55;9.80;;;3.20;99.90;;;;;;5069795;28;20670;-74
2023/01/18 07:11:52;;;;;;;14.60;10.25;;;3.20;99.90;;;;;;5065210;28;20195;-74
2023/01/18 07:14:39;;;;;;;13.38;10.18;;;3.10;99.90;;;;;;5065526;28;20247;-74
2023/01/18 07:17:24;;;;;;;14.52;9.65;;;3.00;99.90;;;;;;5069256;28;20723;-74
2023/01/18 07:20:12;;;;;;;13.48;8.90;;;3.00;99.90;;;;;;5069849;28;20255;-74
2023/01/18 07:22:58;;;;;;;10.48;8.30;;;3.00;99.90;;;;;;5069073;28;20196;-74
2023/01/18 07:25:44;;;;;;;12.27;9.75;;;3.00;99.90;;;;;;5062369;28;20231;-74
2023/01/18 07:28:30;;;;;;;10.57;9.40;;;3.00;99.90;;;;;;5067287;28;20670;-74
2023/01/18 07:31:19;;;;;;;14.30;12.05;;;3.00;99.90;;;;;;5069456;28;20215;-74
2023/01/18 07:34:04;;;;;;;17.17;13.55;;;2.80;99.90;;;;;;5061631;28;20651;-75
2023/01/18 07:36:50;;;;;;;18.45;13.77;;;2.80;99.90;;;;;;5068420;28;20247;-75
2023/01/18 07:39:36;;;;;;;12.82;10.05;;;2.90;99.90;;;;;;5065362;28;20553;-74
2023/01/18 07:42:21;;;;;;;10.70;9.55;;;2.90;99.90;;;;;;5068474;28;20207;-75
2023/01/18 07:45:08;;;;;;;11.48;9.52;;;2.90;99.90;;;;;;5063884;28;20228;-75
2023/01/18 07:47:55;;;;;;;13.82;9.70;;;3.00;99.90;;;;;;5063523;28;20660;-74
2023/01/18 07:50:41;;;;;;;16.25;10.10;;;3.00;99.90;;;;;;5068423;28;20310;-74
2023/01/18 07:53:27;;;;;;;14.90;10.25;;;3.00;99.90;;;;;;5064833;28;20212;-74
2023/01/18 07:56:14;;;;;;;15.57;10.27;;;3.00;99.90;;;;;;5065826;28;20240;-74
2023/01/18 07:59:00;;;;;;;17.10;11.35;;;2.90;99.90;;;;;;5062957;28;20220;-73
2023/01/18 08:01:46;;;;;;;12.20;8.90;;;2.80;99.90;;;;;;5061819;28;20208;-74
2023/01/18 08:04:33;;;;;;;12.27;10.10;;;2.80;99.90;;;;;;5061003;28;20262;-75
2023/01/18 08:07:19;;;;;;;13.88;10.50;;;2.70;99.90;;;;;;5070992;28;20232;-74
2023/01/18 08:10:05;;;;;;;12.38;9.60;;;2.80;99.90;;;;;;5070450;28;20200;-74
2023/01/18 08:12:51;;;;;;;11.98;10.68;;;2.90;99.90;;;;;;5057921;28;20200;-75
2023/01/18 08:15:37;;;;;;;13.07;10.20;;;3.00;99.90;;;;;;5060985;28;20824;-75
2023/01/18 08:18:23;;;;;;;12.75;11.07;;;3.10;99.90;;;;;;5056152;28;20205;-75
2023/01/18 08:21:11;;;;;;;12.15;10.15;;;3.20;99.90;;;;;;5068277;28;20256;-74
2023/01/18 08:23:57;;;;;;;11.98;10.65;;;3.10;99.90;;;;;;5066649;28;20242;-75
2023/01/18 08:26:43;;;;;;;17.80;11.60;;;3.20;99.90;;;;;;5065538;28;20205;-75
2023/01/18 08:29:29;;;;;;;19.75;12.93;;;3.30;99.90;;;;;;5066181;28;20236;-74
2023/01/18 08:32:15;;;;;;;21.40;14.88;;;3.20;99.90;;;;;;5066636;28;20275;-75
2023/01/18 08:35:00;;;;;;;19.60;15.43;;;3.30;99.90;;;;;;5060379;28;20262;-75
2023/01/18 08:37:47;;;;;;;25.63;14.30;;;3.20;99.90;;;;;;5062002;28;20204;-74
2023/01/18 08:40:33;;;;;;;16.42;13.13;;;3.30;99.90;;;;;;5065027;28;20207;-75
2023/01/18 08:43:22;;;;;;;22.83;14.52;;;3.40;99.90;;;;;;5066918;28;20208;-75
2023/01/18 08:46:08;;;;;;;14.93;12.40;;;3.40;99.90;;;;;;5059779;28;20228;-74
2023/01/18 08:48:55;;;;;;;17.65;12.48;;;3.40;99.90;;;;;;5059428;28;20224;-75
2023/01/18 08:51:41;;;;;;;14.98;12.30;;;3.40;99.90;;;;;;5057778;28;20201;-75
2023/01/18 08:54:28;;;;;;;13.90;12.15;;;3.40;99.90;;;;;;5066286;28;20275;-75
2023/01/18 08:57:14;;;;;;;14.60;11.38;;;3.40;99.90;;;;;;5069961;28;20208;-75
2023/01/18 08:59:59;;;;;;;13.20;10.95;;;3.50;99.90;;;;;;5071739;28;20668;-75
2023/01/18 09:02:47;;;;;;;23.65;14.95;;;3.50;99.90;;;;;;5068209;28;20571;-74
2023/01/18 09:05:35;;;;;;;23.10;16.08;;;3.60;99.90;;;;;;5073329;28;20721;-74
2023/01/18 09:08:21;;;;;;;22.55;15.45;;;3.60;99.90;;;;;;5064173;28;20228;-74
2023/01/18 09:11:10;;;;;;;19.15;14.50;;;3.70;99.90;;;;;;5064350;28;20209;-74
2023/01/18 09:13:58;;;;;;;18.75;14.57;;;3.60;99.90;;;;;;5057304;28;20204;-74
2023/01/18 09:16:43;;;;;;;20.05;12.75;;;3.60;99.90;;;;;;5067064;28;20203;-74
2023/01/18 09:19:29;;;;;;;15.40;12.60;;;3.60;99.90;;;;;;5062863;28;20569;-74
2023/01/18 09:22:14;;;;;;;19.58;13.55;;;3.60;99.90;;;;;;5073431;28;20212;-73
2023/01/18 09:25:00;;;;;;;16.48;12.43;;;3.60;99.90;;;;;;5072004;28;20232;-73
2023/01/18 09:27:47;;;;;;;25.17;12.57;;;3.70;99.90;;;;;;5068348;28;20320;-73
2023/01/18 09:30:34;;;;;;;16.42;12.27;;;3.70;99.90;;;;;;5065898;28;20394;-73
2023/01/18 09:33:20;;;;;;;16.02;12.02;;;3.70;99.90;;;;;;5064872;28;20334;-72
2023/01/18 09:36:08;;;;;;;20.92;12.55;;;3.80;99.90;;;;;;5065863;28;20271;-72
2023/01/18 09:38:55;;;;;;;15.40;10.95;;;3.80;99.90;;;;;;5067507;28;20201;-72
2023/01/18 09:41:43;;;;;;;14.43;11.35;;;3.70;99.90;;;;;;5069543;28;20233;-74
2023/01/18 09:44:32;;;;;;;18.15;11.13;;;3.70;99.90;;;;;;5064460;28;20258;-75
2023/01/18 09:47:22;;;;;;;18.50;11.95;;;3.80;99.90;;;;;;5069428;28;20611;-75
2023/01/18 09:50:14;;;;;;;16.35;11.75;;;3.80;99.90;;;;;;5071463;28;20197;-76
2023/01/18 09:53:08;;;;;;;16.20;11.90;;;3.70;99.90;;;;;;5066140;28;20275;-74
2023/01/18 09:56:00;;;;;;;9.95;7.03;;;3.80;99.90;;;;;;5068819;28;20237;-73
2023/01/18 09:58:57;;;;;;;11.90;6.93;;;3.80;99.90;;;;;;5064440;28;20689;-75
2023/01/18 10:01:45;;;;;;;18.08;8.85;;;3.60;99.90;;;;;;5056272;28;20204;-75
2023/01/18 10:04:35;;;;;;;10.63;7.10;;;3.60;99.90;;;;;;5063510;28;20721;-75
2023/01/18 10:07:23;;;;;;;13.25;6.30;;;3.70;99.90;;;;;;5069512;28;20310;-75
2023/01/18 10:10:17;;;;;;;15.77;7.18;;;3.60;99.90;;;;;;5071647;28;20224;-74
2023/01/18 10:13:31;;;;;;;15.70;7.80;;;3.60;99.90;;;;;;5062979;28;20200;-74
2023/01/18 10:16:17;;;;;;;9.43;5.80;;;3.70;99.90;;;;;;5072303;28;20228;-74
2023/01/18 10:19:12;;;;;;;27.17;16.45;;;3.80;99.90;;;;;;5067203;28;20234;-74
2023/01/18 10:22:05;;;;;;;17.30;7.88;;;3.70;99.90;;;;;;5061814;28;20665;-75
2023/01/18 10:24:58;;;;;;;20.00;10.30;;;3.80;99.90;;;;;;5066060;22;20251;-75
2023/01/18 10:28:04;;;;;;;30.95;15.27;;;3.90;99.90;;;;;;4977955;28;20278;-79
2023/01/18 10:31:02;;;;;;;11.13;6.57;;;4.10;99.90;;;;;;4974814;28;20211;-79
2023/01/18 10:33:51;;;;;;;14.13;8.02;;;4.20;99.90;;;;;;4977530;28;20317;-79
2023/01/18 10:36:43;;;;;;;31.45;15.88;;;4.20;99.90;;;;;;4965585;28;20785;-79
2023/01/18 10:39:35;;;;;;;10.65;7.03;;;4.20;99.90;;;;;;4974240;28;20208;-77
2023/01/18 10:42:23;;;;;;;10.10;6.13;;;4.20;99.90;;;;;;4966411;28;20251;-78
2023/01/18 10:45:18;;;;;;;7.90;4.57;;;4.30;99.90;;;;;;4958305;28;20228;-78
2023/01/18 10:48:24;;;;;;;8.48;4.88;;;4.30;99.90;;;;;;4973522;28;20945;-79
2023/01/18 10:51:26;;;;;;;5.95;4.63;;;4.40;99.90;;;;;;4969977;28;20215;-78
2023/01/18 10:54:27;;;;;;;10.52;5.10;;;4.20;99.90;;;;;;4962287;28;20218;-79
2023/01/18 10:57:20;;;;;;;8.23;4.00;;;4.30;99.90;;;;;;4970942;28;20720;-78
2023/01/18 11:00:20;;;;;;;5.70;3.72;;;4.40;99.90;;;;;;4961722;28;20203;-78
2023/01/18 11:03:06;;;;;;;5.38;4.20;;;4.70;99.90;;;;;;4970190;28;20267;-78
2023/01/18 11:05:52;;;;;;;5.70;4.10;;;4.80;99.90;;;;;;4971614;28;20223;-78
2023/01/18 11:08:38;;;;;;;8.25;4.90;;;4.80;99.90;;;;;;4976286;28;20235;-79
2023/01/18 11:14:38;;;;;;;7.13;4.03;;;4.70;99.90;;;;;;4972282;28;20712;-76
2023/01/18 11:17:24;;;;;;;8.80;4.20;;;4.70;99.90;;;;;;4966313;28;20227;-76
2023/01/18 11:20:15;;;;;;;5.15;3.35;;;4.50;99.90;;;;;;4973959;28;20282;-74
2023/01/18 11:23:03;;;;;;;7.63;3.60;;;4.50;99.90;;;;;;4976352;28;20220;-75
2023/01/18 11:25:56;;;;;;;20.77;4.45;;;4.60;99.90;;;;;;4962896;28;20305;-77
2023/01/18 11:28:50;;;;;;;7.72;4.70;;;4.50;99.90;;;;;;4971432;28;20270;-78
2023/01/18 11:31:45;;;;;;;8.88;5.18;;;4.50;99.90;;;;;;4968111;28;20349;-78
2023/01/18 11:34:33;;;;;;;9.55;5.75;;;4.60;99.90;;;;;;4968388;28;20212;-77
2023/01/18 11:37:30;;;;;;;9.30;5.00;;;4.60;99.90;;;;;;4967251;28;20565;-77
2023/01/18 11:43:11;;;;;;;12.43;5.15;;;4.70;99.90;;;;;;5084877;27;20605;-76
2023/01/18 11:46:04;;;;;;;5.65;3.75;;;4.70;99.20;;;;;;5065968;28;20290;-77
2023/01/18 11:48:53;;;;;;;8.25;3.78;;;4.80;99.30;;;;;;5064087;28;20266;-75
2023/01/18 11:51:45;;;;;;;36.80;14.57;;;4.70;96.40;;;;;;5068815;28;20239;-77
2023/01/18 11:54:38;;;;;;;5.90;4.15;;;4.80;96.00;;;;;;5060516;28;20685;-75
2023/01/18 11:57:24;;;;;;;9.13;4.93;;;4.70;96.60;;;;;;5049578;28;20200;-75
2023/01/18 12:00:14;;;;;;;7.95;3.63;;;4.80;97.10;;;;;;5070149;28;20199;-75
2023/01/18 12:03:29;;;;;;;9.85;4.00;;;4.70;93.50;;;;;;5071756;28;20629;-75
2023/01/18 12:06:28;;;;;;;7.00;3.47;;;4.70;93.40;;;;;;5066310;28;20228;-75
2023/01/18 12:09:29;;;;;;;7.43;3.47;;;4.60;90.90;;;;;;5073357;28;20575;-75
2023/01/18 12:12:30;;;;;;;10.90;3.78;;;4.60;92.00;;;;;;5071984;28;20296;-76
2023/01/18 12:15:46;;;;;;;12.05;4.10;;;4.70;92.30;;;;;;5061949;28;20321;-76
2023/01/18 12:18:51;;;;;;;10.85;4.70;;;4.80;92.40;;;;;;5073338;28;20203;-75
2023/01/18 12:21:46;;;;;;;7.45;3.58;;;5.10;92.40;;;;;;5070233;28;20600;-75
2023/01/18 12:24:50;;;;;;;8.38;4.35;;;5.20;91.20;;;;;;5061718;28;20210;-76
2023/01/18 12:27:42;;;;;;;7.47;3.13;;;5.30;90.30;;;;;;5072963;28;20207;-76
2023/01/18 12:30:43;;;;;;;4.18;2.60;;;5.50;84.20;;;;;;5074453;28;20277;-75
2023/01/18 12:33:40;;;;;;;4.45;3.20;;;5.40;75.80;;;;;;5066384;28;20216;-76
2023/01/18 12:36:44;;;;;;;5.67;2.90;;;5.40;82.10;;;;;;5070682;28;20231;-76
2023/01/18 12:39:47;;;;;;;4.78;3.33;;;5.40;76.90;;;;;;5063284;28;20775;-75
2023/01/18 12:42:46;;;;;;;7.90;3.70;;;5.60;74.40;;;;;;5073215;28;20762;-75
2023/01/18 12:45:38;;;;;;;9.43;3.65;;;5.70;68.80;;;;;;5065753;28;20720;-75
2023/01/18 12:48:30;;;;;;;5.63;3.10;;;5.80;72.30;;;;;;5071465;28;20247;-75
2023/01/18 12:51:18;;;;;;;9.85;4.15;;;6.10;73.70;;;;;;5073649;28;20546;-75
2023/01/18 12:54:13;;;;;;;8.27;3.85;;;6.30;70.20;;;;;;5033384;28;20213;-76
2023/01/18 12:57:00;;;;;;;10.15;4.25;;;6.20;65.70;;;;;;5043537;28;20570;-77
2023/01/18 12:59:52;;;;;;;8.82;4.20;;;6.00;68.60;;;;;;5052572;28;20213;-75
2023/01/18 13:02:43;;;;;;;7.50;3.80;;;6.10;70.00;;;;;;5067598;28;20728;-75
2023/01/18 13:05:35;;;;;;;11.93;4.28;;;6.20;61.30;;;;;;5041941;28;20341;-76
2023/01/18 13:08:29;;;;;;;7.85;4.00;;;6.30;56.50;;;;;;5047254;28;20205;-76
2023/01/18 13:11:18;;;;;;;5.93;3.40;;;6.50;56.20;;;;;;5050611;28;20595;-77
2023/01/18 13:14:11;;;;;;;10.40;3.33;;;7.00;60.00;;;;;;5045291;28;20427;-75
2023/01/18 13:17:05;;;;;;;9.00;3.83;;;7.40;56.60;;;;;;5037091;28;20430;-76
2023/01/18 13:19:57;;;;;;;6.90;4.27;;;7.70;46.40;;;;;;5049317;28;20217;-76
2023/01/18 13:22:47;;;;;;;10.00;3.92;;;8.00;42.70;;;;;;5054653;28;20482;-76
2023/01/18 13:25:47;;;;;;;11.20;4.23;;;8.40;42.20;;;;;;5057272;28;20839;-77
2023/01/18 13:28:33;;;;;;;7.27;4.30;;;8.10;38.70;;;;;;5055195;28;20795;-76
2023/01/18 13:31:30;;;;;;;10.37;4.47;;;7.80;41.60;;;;;;5054418;28;20474;-78
2023/01/18 13:34:31;;;;;;;11.50;4.10;;;7.40;43.00;;;;;;5046387;28;21020;-75
2023/01/18 13:37:41;;;;;;;9.27;5.03;;;6.80;48.00;;;;;;5048919;28;20451;-75
2023/01/18 13:40:36;;;;;;;10.20;4.70;;;6.40;50.70;;;;;;5040652;28;20577;-73
2023/01/18 13:44:00;;;;;;;8.97;5.00;;;6.20;54.30;;;;;;5052645;28;20511;-73
2023/01/18 13:46:46;;;;;;;13.27;7.17;;;6.30;57.50;;;;;;5052711;28;20966;-76
2023/01/18 13:49:36;;;;;;;14.03;6.33;;;6.20;59.10;;;;;;5060785;28;20422;-77
2023/01/18 13:52:31;;;;;;;10.45;5.63;;;6.20;63.20;;;;;;5058170;28;20578;-75
2023/01/18 13:55:34;;;;;;;12.05;6.85;;;6.20;64.50;;;;;;5055154;28;20322;-76
2023/01/18 13:58:25;;;;;;;17.23;7.35;;;5.90;66.20;;;;;;5054109;28;20217;-76
2023/01/18 14:01:21;;;;;;;22.95;10.35;;;5.50;65.90;;;;;;5051098;28;20351;-75
2023/01/18 14:04:25;;;;;;;15.40;8.05;;;5.30;70.20;;;;;;5040160;28;20205;-76
2023/01/18 14:07:21;;;;;;;16.92;8.52;;;5.00;71.20;;;;;;5052894;28;20207;-75
2023/01/18 14:10:23;;;;;;;15.35;8.52;;;4.90;72.80;;;;;;5040042;28;20207;-76
2023/01/18 14:13:14;;;;;;;15.48;8.13;;;4.70;73.80;;;;;;5042297;28;20315;-75
2023/01/18 14:15:59;;;;;;;18.83;8.80;;;4.60;77.10;;;;;;5035004;28;20232;-76
2023/01/18 14:18:49;;;;;;;14.30;8.40;;;4.60;78.70;;;;;;5035480;28;20209;-75
2023/01/18 14:21:53;;;;;;;14.38;8.75;;;4.60;81.50;;;;;;5043907;28;20265;-76
2023/01/18 14:25:24;;;;;;;17.27;8.60;;;4.60;78.40;;;;;;5036975;28;20343;-77
2023/01/18 14:28:14;;;;;;;19.92;10.00;;;4.40;79.00;;;;;;5043826;28;20205;-75
2023/01/18 14:31:02;;;;;;;16.88;9.35;;;4.40;81.80;;;;;;5045358;28;20257;-76
2023/01/18 14:33:48;;;;;;;20.17;9.60;;;4.40;81.40;;;;;;5040517;28;20205;-76
2023/01/18 14:36:36;;;;;;;17.77;9.75;;;4.20;81.20;;;;;;5042162;28;20217;-75
2023/01/18 14:39:21;;;;;;;18.25;9.50;;;4.20;82.10;;;;;;5040909;28;20205;-76
2023/01/18 14:42:10;;;;;;;15.80;9.13;;;4.20;81.50;;;;;;5035953;28;20513;-76
2023/01/18 14:44:56;;;;;;;13.52;9.43;;;4.20;80.80;;;;;;5037525;28;20232;-76
2023/01/18 14:47:42;;;;;;;16.95;9.23;;;4.30;79.90;;;;;;5051105;28;20197;-75
2023/01/18 14:50:33;;;;;;;13.82;9.30;;;4.30;79.80;;;;;;5035610;28;20732;-76
2023/01/18 14:53:22;;;;;;;14.10;9.27;;;4.40;78.90;;;;;;5038846;28;20233;-78
2023/01/18 14:56:15;;;;;;;14.45;8.68;;;4.30;75.80;;;;;;5041225;28;20237;-75
2023/01/18 14:59:19;;;;;;;15.60;9.38;;;4.30;74.90;;;;;;5035485;28;20567;-77
2023/01/18 15:02:16;;;;;;;17.58;8.60;;;4.30;75.90;;;;;;5031718;28;20263;-75
2023/01/18 15:05:11;;;;;;;15.93;9.75;;;4.40;75.70;;;;;;5033700;28;21755;-75
2023/01/18 15:07:58;;;;;;;17.90;9.43;;;4.40;72.40;;;;;;5046502;28;20208;-75
2023/01/18 15:10:44;;;;;;;14.85;9.77;;;4.40;73.20;;;;;;5052353;28;20568;-75
2023/01/18 15:13:31;;;;;;;14.63;8.75;;;4.40;73.40;;;;;;5041226;28;20290;-75
2023/01/18 15:16:20;;;;;;;16.55;9.50;;;4.50;73.50;;;;;;5039077;28;20722;-76
2023/01/18 15:19:15;;;;;;;14.82;8.10;;;4.30;72.70;;;;;;5042032;28;20208;-75
2023/01/18 15:22:03;;;;;;;16.58;8.60;;;4.30;75.40;;;;;;5046556;28;20221;-78
2023/01/18 15:24:49;;;;;;;15.63;8.48;;;4.40;75.20;;;;;;5033203;28;20225;-76
2023/01/18 15:27:34;;;;;;;16.17;8.60;;;4.40;73.30;;;;;;5042362;28;20203;-74